Quilmes, Argentina
Current Conditions -  °F | °C
As of 3:00 PM on Friday 19 Dec 2014 (Local Time) from SABE Reporting Station
Clear Clear  
Wind Chill: 90°   Ceiling: Unl
Heat Index: 90°   Visibility: 6mi
Dew Point: 61°   Wind: 12mph
Humidity: 38%   Direction: 320°NW
Pressure: 29.59"   Gusts: NA
Location:  34.73°S, 58.27°W
Report Text: SABE 191800Z 32010KT CAVOK 32/16 Q1002
Loading
Personal Weather Stations






























Interactive Weather Map New forecast layout! Learn more

10-Day Weather Forecast

Advertisements
Track Severe Weather on mobile